createdAt,value
2023-05-01T00:02:19.399Z,1.80
2023-05-01T00:05:24.368Z,1.50
2023-05-01T00:08:29.328Z,1.63
2023-05-01T00:11:37.325Z,1.90
2023-05-01T00:14:42.142Z,1.75
2023-05-01T00:17:47.027Z,1.60
2023-05-01T00:20:51.670Z,1.65
2023-05-01T00:23:55.920Z,1.42
2023-05-01T00:27:00.464Z,1.73
2023-05-01T00:30:06.112Z,2.83
2023-05-01T00:33:10.711Z,1.77
2023-05-01T00:36:15.162Z,2.03
2023-05-01T00:39:19.550Z,1.80
2023-05-01T00:42:24.381Z,1.75
2023-05-01T00:45:29.095Z,2.10
2023-05-01T00:48:33.874Z,1.80
2023-05-01T00:51:39.015Z,1.58
2023-05-01T00:54:43.632Z,1.80
2023-05-01T00:57:48.145Z,1.70
2023-05-01T01:00:53.166Z,1.60
2023-05-01T01:03:57.968Z,1.40
2023-05-01T01:07:36.292Z,1.67
2023-05-01T01:10:53.403Z,2.03
2023-05-01T01:14:16.927Z,1.42
2023-05-01T01:17:35.561Z,1.60
2023-05-01T01:20:49.364Z,1.60
2023-05-01T01:24:36.395Z,1.65
2023-05-01T01:28:04.539Z,1.40
2023-05-01T01:31:41.536Z,1.48
2023-05-01T01:35:01.204Z,1.83
2023-05-01T01:38:16.981Z,1.60
2023-05-01T01:41:31.456Z,1.42
2023-05-01T01:44:54.480Z,1.95
2023-05-01T01:48:00.553Z,1.58
2023-05-01T01:51:18.144Z,1.77
2023-05-01T01:54:31.263Z,1.70
2023-05-01T02:00:48.763Z,1.80
2023-05-01T02:03:54.384Z,1.92
2023-05-01T02:07:01.200Z,1.70
2023-05-01T02:10:09.754Z,1.67
2023-05-01T02:13:17.455Z,1.45
2023-05-01T02:16:25.415Z,1.60
2023-05-01T02:19:33.532Z,1.92
2023-05-01T02:22:41.075Z,1.75
2023-05-01T02:25:49.789Z,1.50
2023-05-01T02:28:54.844Z,2.00
2023-05-01T02:32:00.708Z,1.95
2023-05-01T02:35:06.151Z,1.90
2023-05-01T02:38:13.134Z,1.80
2023-05-01T02:41:22.586Z,2.10
2023-05-01T02:44:29.054Z,2.08
2023-05-01T02:47:37.662Z,1.92
2023-05-01T02:50:44.818Z,2.30
2023-05-01T02:53:49.986Z,2.65
2023-05-01T02:56:59.600Z,2.28
2023-05-01T03:00:05.002Z,2.10
2023-05-01T03:03:10.777Z,2.15
2023-05-01T03:06:15.593Z,1.58
2023-05-01T03:09:22.044Z,2.60
2023-05-01T03:12:26.489Z,2.22
2023-05-01T03:15:31.256Z,1.75
2023-05-01T03:18:35.897Z,1.73
2023-05-01T03:21:40.581Z,1.90
2023-05-01T03:24:45.009Z,2.00
2023-05-01T03:27:50.071Z,2.03
2023-05-01T03:30:54.673Z,2.22
2023-05-01T03:33:59.552Z,1.83
2023-05-01T03:37:04.372Z,2.03
2023-05-01T03:40:09.934Z,2.05
2023-05-01T03:43:33.053Z,1.85
2023-05-01T03:46:42.769Z,1.67
2023-05-01T03:49:53.631Z,2.20
2023-05-01T03:52:59.312Z,1.73
2023-05-01T03:56:04.672Z,1.90
2023-05-01T03:59:09.326Z,1.98
2023-05-01T04:02:14.199Z,1.80
2023-05-01T04:05:21.464Z,2.00
2023-05-01T04:08:30.621Z,1.92
2023-05-01T04:11:35.315Z,1.90
2023-05-01T04:14:39.979Z,2.20
2023-05-01T04:17:44.906Z,2.00
2023-05-01T04:20:49.759Z,2.17
2023-05-01T04:23:54.152Z,2.33
2023-05-01T04:26:58.646Z,2.30
2023-05-01T04:30:03.899Z,1.75
2023-05-01T04:33:12.903Z,1.80
2023-05-01T04:36:18.395Z,2.22
2023-05-01T04:39:24.088Z,2.15
2023-05-01T04:42:32.953Z,2.20
2023-05-01T04:45:41.327Z,2.35
2023-05-01T04:48:46.745Z,2.50
2023-05-01T04:51:51.407Z,2.55
2023-05-01T04:54:57.995Z,2.20
2023-05-01T04:58:05.555Z,2.20
2023-05-01T05:01:12.540Z,2.75
2023-05-01T05:04:17.111Z,2.17
2023-05-01T05:07:22.701Z,1.95
2023-05-01T05:11:00.956Z,2.83
2023-05-01T05:14:15.031Z,2.03
2023-05-01T05:17:19.576Z,2.00
2023-05-01T05:20:24.326Z,2.25
2023-05-01T05:23:29.016Z,2.00
2023-05-01T05:26:33.510Z,2.28
2023-05-01T05:29:40.858Z,2.20
2023-05-01T05:32:47.744Z,2.05
2023-05-01T05:35:53.337Z,2.50
2023-05-01T05:39:01.934Z,2.10
2023-05-01T05:42:06.669Z,2.58
2023-05-01T05:45:11.816Z,2.42
2023-05-01T05:48:17.334Z,2.42
2023-05-01T05:51:21.848Z,2.40
2023-05-01T05:54:26.465Z,2.40
2023-05-01T05:57:31.495Z,2.58
2023-05-01T06:00:36.357Z,2.33
2023-05-01T06:03:43.466Z,1.83
2023-05-01T06:06:49.096Z,2.42
2023-05-01T06:09:53.816Z,2.03
2023-05-01T06:13:01.278Z,2.10
2023-05-01T06:16:12.222Z,3.10
2023-05-01T06:19:16.915Z,2.42
2023-05-01T06:22:22.970Z,2.30
2023-05-01T06:25:40.560Z,1.95
2023-05-01T06:28:44.997Z,2.10
2023-05-01T06:31:49.730Z,2.30
2023-05-01T06:34:54.648Z,2.50
2023-05-01T06:38:00.297Z,2.33
2023-05-01T06:41:05.977Z,2.22
2023-05-01T06:44:10.436Z,2.33
2023-05-01T06:47:16.392Z,1.85
2023-05-01T06:50:21.188Z,2.42
2023-05-01T06:53:25.801Z,2.15
2023-05-01T06:56:30.272Z,2.50
2023-05-01T06:59:35.026Z,2.30
2023-05-01T07:02:40.760Z,2.10
2023-05-01T07:05:45.483Z,2.10
2023-05-01T07:08:51.812Z,2.38
2023-05-01T07:11:59.180Z,2.22
2023-05-01T07:15:04.552Z,2.30
2023-05-01T07:18:09.693Z,2.38
2023-05-01T07:21:14.709Z,2.40
2023-05-01T07:24:19.160Z,2.10
2023-05-01T07:27:24.814Z,2.10
2023-05-01T07:30:30.499Z,2.75
2023-05-01T07:33:35.047Z,2.63
2023-05-01T07:36:39.832Z,2.33
2023-05-01T07:39:45.255Z,2.38
2023-05-01T07:42:53.840Z,2.65
2023-05-01T07:46:00.840Z,2.50
2023-05-01T07:49:05.499Z,2.70
2023-05-01T07:52:10.969Z,2.40
2023-05-01T07:55:15.250Z,2.28
2023-05-01T07:58:20.452Z,2.08
2023-05-01T08:01:25.589Z,2.22
2023-05-01T08:04:31.114Z,2.13
2023-05-01T08:07:35.796Z,2.08
2023-05-01T08:10:40.472Z,2.75
2023-05-01T08:13:45.415Z,2.38
2023-05-01T08:16:54.332Z,2.47
2023-05-01T08:20:00.751Z,2.72
2023-05-01T08:23:05.058Z,2.30
2023-05-01T08:26:09.580Z,2.38
2023-05-01T08:29:14.492Z,2.30
2023-05-01T08:32:19.173Z,2.25
2023-05-01T08:35:24.078Z,1.92
2023-05-01T08:38:29.013Z,2.30
2023-05-01T08:41:35.774Z,2.10
2023-05-01T08:44:42.295Z,2.15
2023-05-01T08:47:49.198Z,2.42
2023-05-01T08:50:58.389Z,1.98
2023-05-01T08:54:05.482Z,2.42
2023-05-01T08:57:12.253Z,2.30
2023-05-01T09:00:21.530Z,2.38
2023-05-01T09:03:28.829Z,2.22
2023-05-01T09:06:33.439Z,2.13
2023-05-01T09:09:38.063Z,1.83
2023-05-01T09:12:46.073Z,2.03
2023-05-01T09:15:50.849Z,2.42
2023-05-01T09:18:55.698Z,2.55
2023-05-01T09:21:59.686Z,1.85
2023-05-01T09:25:04.515Z,2.10
2023-05-01T09:28:09.126Z,2.20
2023-05-01T09:31:29.104Z,1.88
2023-05-01T09:34:33.731Z,1.92
2023-05-01T09:37:38.973Z,1.73
2023-05-01T09:40:43.453Z,1.45
2023-05-01T09:43:59.074Z,1.65
2023-05-01T09:47:03.723Z,1.85
2023-05-01T09:50:09.399Z,2.38
2023-05-01T09:53:13.965Z,1.90
2023-05-01T09:56:20.240Z,1.85
2023-05-01T09:59:25.188Z,1.40
2023-05-01T10:02:30.902Z,1.75
2023-05-01T10:05:45.471Z,1.85
2023-05-01T10:08:50.994Z,2.28
2023-05-01T10:11:58.044Z,1.85
2023-05-01T10:15:17.336Z,1.73
2023-05-01T10:18:30.622Z,2.38
2023-05-01T10:21:35.498Z,2.55
2023-05-01T10:24:43.267Z,2.50
2023-05-01T10:27:50.441Z,2.28
2023-05-01T10:30:57.494Z,1.80
2023-05-01T10:34:02.268Z,1.95
2023-05-01T10:37:34.441Z,2.17
2023-05-01T10:40:39.774Z,2.35
2023-05-01T10:43:44.688Z,2.08
2023-05-01T10:46:49.918Z,2.20
2023-05-01T10:50:08.847Z,2.72
2023-05-01T10:53:14.741Z,2.25
2023-05-01T10:56:25.377Z,3.33
2023-05-01T10:59:58.591Z,2.47
2023-05-01T11:03:21.391Z,2.70
2023-05-01T11:06:26.564Z,2.38
2023-05-01T11:09:55.332Z,2.67
2023-05-01T11:13:00.307Z,2.28
2023-05-01T11:16:42.735Z,2.42
2023-05-01T11:19:50.482Z,2.00
2023-05-01T11:22:57.230Z,1.67
2023-05-01T11:26:04.734Z,1.40
2023-05-01T11:29:11.301Z,1.50
2023-05-01T11:32:24.744Z,1.45
2023-05-01T11:35:30.458Z,1.77
2023-05-01T11:38:35.235Z,1.70
2023-05-01T11:41:39.971Z,1.50
2023-05-01T11:45:11.127Z,1.60
2023-05-01T11:48:18.521Z,1.60
2023-05-01T11:51:24.950Z,1.38
2023-05-01T11:54:29.976Z,1.40
2023-05-01T11:57:53.947Z,1.30
2023-05-01T12:00:59.493Z,1.00
2023-05-01T12:04:05.577Z,1.30
2023-05-01T12:07:21.667Z,1.42
2023-05-01T12:10:26.263Z,1.45
2023-05-01T12:13:31.301Z,1.10
2023-05-01T12:16:37.829Z,1.50
2023-05-01T12:19:49.040Z,1.73
2023-05-01T12:22:53.483Z,1.23
2023-05-01T12:25:58.492Z,1.60
2023-05-01T12:29:06.659Z,1.30
2023-05-01T12:32:11.750Z,1.38
2023-05-01T12:35:17.019Z,1.33
2023-05-01T12:38:23.404Z,1.80
2023-05-01T12:41:37.813Z,1.45
2023-05-01T12:44:43.637Z,1.45
2023-05-01T12:47:48.669Z,1.10
2023-05-01T12:50:56.837Z,1.25
2023-05-01T12:54:01.613Z,1.20
2023-05-01T12:57:15.162Z,1.25
2023-05-01T13:00:20.806Z,1.40
2023-05-01T13:03:28.545Z,1.20
2023-05-01T13:06:34.168Z,1.45
2023-05-01T13:09:39.522Z,1.23
2023-05-01T13:12:45.560Z,1.00
2023-05-01T13:15:49.993Z,1.10
2023-05-01T13:18:54.868Z,0.82
2023-05-01T13:21:59.644Z,0.93
2023-05-01T13:25:20.718Z,1.42
2023-05-01T13:28:25.396Z,1.00
2023-05-01T13:31:30.632Z,1.15
2023-05-01T13:34:36.357Z,0.90
2023-05-01T13:37:40.817Z,1.00
2023-05-01T13:40:45.708Z,1.00
2023-05-01T13:43:52.958Z,1.05
2023-05-01T13:46:57.333Z,1.27
2023-05-01T13:50:02.211Z,1.00
2023-05-01T13:53:07.141Z,0.98
2023-05-01T13:56:15.564Z,0.90
2023-05-01T13:59:20.139Z,0.80
2023-05-01T14:02:29.575Z,1.08
2023-05-01T14:05:36.598Z,1.58
2023-05-01T14:08:41.383Z,1.73
2023-05-01T14:11:48.271Z,2.20
2023-05-01T14:14:53.454Z,2.88
2023-05-01T14:18:01.102Z,2.25
2023-05-01T14:21:06.963Z,2.22
2023-05-01T14:24:12.408Z,2.50
2023-05-01T14:27:17.285Z,2.40
2023-05-01T14:30:37.611Z,2.00
2023-05-01T14:33:45.463Z,2.40
2023-05-01T14:36:55.902Z,2.42
2023-05-01T14:40:02.221Z,1.95
2023-05-01T14:43:08.650Z,1.70
2023-05-01T14:46:15.208Z,2.00
2023-05-01T14:49:22.039Z,1.90
2023-05-01T14:52:26.570Z,1.75
2023-05-01T14:55:34.733Z,1.95
2023-05-01T14:58:42.385Z,1.70
2023-05-01T15:01:47.238Z,1.60
2023-05-01T15:04:52.173Z,1.80
2023-05-01T15:07:57.450Z,1.63
2023-05-01T15:11:02.532Z,1.65
2023-05-01T15:14:07.207Z,2.13
2023-05-01T15:17:11.747Z,2.00
2023-05-01T15:20:16.308Z,1.90
2023-05-01T15:23:21.370Z,1.75
2023-05-01T15:26:26.212Z,1.90
2023-05-01T15:29:30.739Z,1.70
2023-05-01T15:32:35.897Z,1.77
2023-05-01T15:35:40.679Z,1.50
2023-05-01T15:38:47.618Z,1.42
2023-05-01T15:41:52.807Z,1.40
2023-05-01T15:44:57.784Z,1.55
2023-05-01T15:48:03.428Z,1.70
2023-05-01T15:51:07.988Z,1.30
2023-05-01T15:54:12.735Z,1.20
2023-05-01T15:57:20.052Z,1.50
2023-05-01T16:00:25.192Z,1.70
2023-05-01T16:03:30.314Z,1.70
2023-05-01T16:06:35.348Z,1.20
2023-05-01T16:09:39.781Z,1.40
2023-05-01T16:12:44.773Z,1.80
2023-05-01T16:15:49.462Z,1.65
2023-05-01T16:18:57.896Z,1.65
2023-05-01T16:22:07.005Z,1.95
2023-05-01T16:25:12.311Z,1.70
2023-05-01T16:28:17.514Z,1.50
2023-05-01T16:31:27.419Z,2.20
2023-05-01T16:34:33.011Z,1.98
2023-05-01T16:37:38.202Z,2.13
2023-05-01T16:40:44.336Z,1.48
2023-05-01T16:43:49.253Z,1.67
2023-05-01T16:46:57.123Z,1.40
2023-05-01T16:50:02.271Z,1.45
2023-05-01T16:53:07.456Z,1.40
2023-05-01T16:56:12.197Z,1.27
2023-05-01T16:59:16.978Z,2.10
2023-05-01T17:02:21.805Z,1.85
2023-05-01T17:05:27.267Z,1.50
2023-05-01T17:08:31.996Z,1.83
2023-05-01T17:11:36.811Z,2.42
2023-05-01T17:14:41.594Z,2.17
2023-05-01T17:17:46.316Z,2.28
2023-05-01T17:20:50.793Z,1.88
2023-05-01T17:23:55.199Z,2.08
2023-05-01T17:26:59.782Z,1.70
2023-05-01T17:30:05.886Z,1.67
2023-05-01T17:33:10.751Z,1.70
2023-05-01T17:36:15.237Z,2.17
2023-05-01T17:39:21.666Z,1.60
2023-05-01T17:42:26.396Z,1.70
2023-05-01T17:45:31.101Z,1.58
2023-05-01T17:48:35.717Z,1.48
2023-05-01T17:51:40.432Z,1.63
2023-05-01T17:54:44.663Z,1.75
2023-05-01T17:57:49.034Z,2.00
2023-05-01T18:00:56.283Z,1.98
2023-05-01T18:04:02.801Z,1.73
2023-05-01T18:07:07.737Z,1.60
2023-05-01T18:10:12.528Z,1.45
2023-05-01T18:13:17.464Z,1.70
2023-05-01T18:16:23.368Z,2.00
2023-05-01T18:19:28.136Z,2.33
2023-05-01T18:22:32.873Z,2.97
2023-05-01T18:25:39.271Z,3.28
2023-05-01T18:28:43.767Z,3.30
2023-05-01T18:31:51.033Z,3.80
2023-05-01T18:34:56.714Z,4.55
2023-05-01T18:38:01.353Z,4.47
2023-05-01T18:41:07.078Z,3.97
2023-05-01T18:44:11.712Z,3.67
2023-05-01T18:47:16.168Z,3.50
2023-05-01T18:50:21.918Z,3.45
2023-05-01T18:53:27.057Z,4.43
2023-05-01T18:56:31.680Z,4.18
2023-05-01T18:59:36.222Z,3.75
2023-05-01T19:02:41.195Z,3.78
2023-05-01T19:05:45.960Z,3.33
2023-05-01T19:08:50.285Z,3.10
2023-05-01T19:11:54.909Z,4.03
2023-05-01T19:14:59.510Z,4.38
2023-05-01T19:18:05.100Z,4.10
2023-05-01T19:21:09.892Z,3.53
2023-05-01T19:24:14.632Z,4.10
2023-05-01T19:27:19.307Z,3.53
2023-05-01T19:30:24.122Z,3.83
2023-05-01T19:33:28.947Z,3.50
2023-05-01T19:36:33.558Z,3.78
2023-05-01T19:39:39.000Z,3.58
2023-05-01T19:42:44.411Z,3.55
2023-05-01T19:45:49.331Z,3.80
2023-05-01T19:48:54.164Z,3.92
2023-05-01T19:51:59.470Z,4.28
2023-05-01T19:55:05.414Z,4.00
2023-05-01T19:58:10.821Z,4.32
2023-05-01T20:01:15.494Z,4.22
2023-05-01T20:04:19.892Z,4.38
2023-05-01T20:07:24.845Z,4.63
2023-05-01T20:10:29.824Z,4.97
2023-05-01T20:13:34.397Z,4.82
2023-05-01T20:16:38.842Z,5.45
2023-05-01T20:19:43.552Z,4.40
2023-05-01T20:22:51.290Z,4.50
2023-05-01T20:25:56.112Z,4.57
2023-05-01T20:29:01.225Z,5.03
2023-05-01T20:32:06.261Z,5.13
2023-05-01T20:35:11.676Z,5.32
2023-05-01T20:38:16.373Z,5.07
2023-05-01T20:41:20.979Z,4.88
2023-05-01T20:44:25.750Z,4.72
2023-05-01T20:47:31.300Z,5.25
2023-05-01T20:50:36.503Z,4.72
2023-05-01T20:53:41.320Z,4.88
2023-05-01T20:56:45.632Z,5.55
2023-05-01T20:59:50.997Z,5.57
2023-05-01T21:02:58.054Z,5.55
2023-05-01T21:06:03.804Z,5.32
2023-05-01T21:09:11.082Z,5.43
2023-05-01T21:12:15.661Z,5.22
2023-05-01T21:15:20.322Z,5.20
2023-05-01T21:18:34.109Z,5.55
2023-05-01T21:21:38.973Z,6.00
2023-05-01T21:24:45.292Z,5.75
2023-05-01T21:27:50.054Z,6.15
2023-05-01T21:30:54.673Z,6.90
2023-05-01T21:34:03.852Z,6.50
2023-05-01T21:37:08.799Z,7.20
2023-05-01T21:40:14.905Z,7.20
2023-05-01T21:43:20.171Z,7.38
2023-05-01T21:46:24.998Z,7.25
2023-05-01T21:49:29.956Z,8.10
2023-05-01T21:52:37.397Z,8.30
2023-05-01T21:55:46.449Z,8.95
2023-05-01T21:58:53.952Z,8.70
2023-05-01T22:01:58.281Z,10.35
2023-05-01T22:05:02.772Z,10.70
2023-05-01T22:08:07.569Z,9.88
2023-05-01T22:11:12.097Z,10.43
2023-05-01T22:14:17.163Z,10.52
2023-05-01T22:17:24.558Z,10.75
2023-05-01T22:20:29.730Z,10.48
2023-05-01T22:23:34.667Z,11.27
2023-05-01T22:26:39.265Z,10.18
2023-05-01T22:29:44.224Z,9.38
2023-05-01T22:32:48.825Z,8.52
2023-05-01T22:35:53.311Z,9.73
2023-05-01T22:38:58.142Z,9.30
2023-05-01T22:42:04.229Z,8.32
2023-05-01T22:45:10.285Z,8.30
2023-05-01T22:48:14.905Z,8.65
2023-05-01T22:51:19.482Z,7.65
2023-05-01T22:54:24.983Z,7.82
2023-05-01T22:57:29.767Z,8.05
2023-05-01T23:00:34.211Z,8.55
2023-05-01T23:03:39.500Z,7.72
2023-05-01T23:06:44.631Z,7.43
2023-05-01T23:09:49.155Z,9.02
2023-05-01T23:12:53.760Z,7.25
2023-05-01T23:15:58.810Z,7.53
2023-05-01T23:19:04.588Z,7.18
2023-05-01T23:22:12.321Z,7.68
2023-05-01T23:25:26.863Z,8.23
2023-05-01T23:28:31.214Z,8.18
2023-05-01T23:31:36.368Z,9.32
2023-05-01T23:34:41.236Z,7.70
2023-05-01T23:37:46.178Z,10.18
2023-05-01T23:40:51.253Z,8.32
2023-05-01T23:43:56.160Z,9.25
2023-05-01T23:47:00.775Z,7.78
2023-05-01T23:50:07.256Z,8.90
2023-05-01T23:53:11.716Z,8.63
2023-05-01T23:56:16.271Z,7.22
2023-05-01T23:59:20.858Z,7.10
